sensor_id;sensor_type;location;lat;lon;timestamp;pressure;altitude;pressure_sealevel;temperature;humidity
55610;BME280;41486;52.502;13.486;2023-03-14T00:01:32;98702.91;;;12.14;100.00
55610;BME280;41486;52.502;13.486;2023-03-14T00:04:00;98717.84;;;11.99;100.00
55610;BME280;41486;52.502;13.486;2023-03-14T00:06:28;98709.31;;;12.20;100.00
55610;BME280;41486;52.502;13.486;2023-03-14T00:08:57;98709.94;;;11.99;100.00
55610;BME280;41486;52.502;13.486;2023-03-14T00:11:25;98698.44;;;11.92;100.00
55610;BME280;41486;52.502;13.486;2023-03-14T00:13:53;98696.72;;;12.07;100.00
55610;BME280;41486;52.502;13.486;2023-03-14T00:16:23;98700.28;;;11.83;100.00
55610;BME280;41486;52.502;13.486;2023-03-14T00:18:51;98687.66;;;11.70;100.00
55610;BME280;41486;52.502;13.486;2023-03-14T00:21:19;98669.59;;;11.90;100.00
55610;BME280;41486;52.502;13.486;2023-03-14T00:23:47;98658.75;;;11.85;100.00
55610;BME280;41486;52.502;13.486;2023-03-14T00:26:19;98650.91;;;11.77;100.00
55610;BME280;41486;52.502;13.486;2023-03-14T00:28:52;98652.06;;;11.74;100.00
55610;BME280;41486;52.502;13.486;2023-03-14T00:31:20;98644.88;;;11.68;100.00
55610;BME280;41486;52.502;13.486;2023-03-14T00:33:51;98650.28;;;11.66;100.00
55610;BME280;41486;52.502;13.486;2023-03-14T00:36:20;98639.00;;;11.58;100.00
55610;BME280;41486;52.502;13.486;2023-03-14T00:38:50;98642.38;;;11.66;100.00
55610;BME280;41486;52.502;13.486;2023-03-14T00:41:20;98632.88;;;11.65;100.00
55610;BME280;41486;52.502;13.486;2023-03-14T00:43:51;98624.78;;;11.67;100.00
55610;BME280;41486;52.502;13.486;2023-03-14T00:46:19;98634.41;;;11.51;100.00
55610;BME280;41486;52.502;13.486;2023-03-14T00:48:47;98640.72;;;11.42;100.00
55610;BME280;41486;52.502;13.486;2023-03-14T00:51:17;98637.56;;;11.47;100.00
55610;BME280;41486;52.502;13.486;2023-03-14T00:53:47;98632.31;;;11.47;100.00
55610;BME280;41486;52.502;13.486;2023-03-14T00:56:15;98629.44;;;11.57;100.00
55610;BME280;41486;52.502;13.486;2023-03-14T00:58:44;98623.00;;;11.59;100.00
55610;BME280;41486;52.502;13.486;2023-03-14T01:01:14;98613.16;;;11.53;100.00
55610;BME280;41486;52.502;13.486;2023-03-14T01:03:42;98609.59;;;11.46;100.00
55610;BME280;41486;52.502;13.486;2023-03-14T01:06:12;98601.06;;;11.35;100.00
55610;BME280;41486;52.502;13.486;2023-03-14T01:08:43;98596.72;;;11.51;100.00
55610;BME280;41486;52.502;13.486;2023-03-14T01:11:13;98586.41;;;11.41;100.00
55610;BME280;41486;52.502;13.486;2023-03-14T01:13:42;98590.88;;;11.41;100.00
55610;BME280;41486;52.502;13.486;2023-03-14T01:16:11;98593.53;;;11.32;100.00
55610;BME280;41486;52.502;13.486;2023-03-14T01:18:41;98600.13;;;11.28;100.00
55610;BME280;41486;52.502;13.486;2023-03-14T01:21:12;98612.63;;;11.26;100.00
55610;BME280;41486;52.502;13.486;2023-03-14T01:23:42;98629.59;;;11.24;100.00
55610;BME280;41486;52.502;13.486;2023-03-14T01:26:12;98649.50;;;11.26;100.00
55610;BME280;41486;52.502;13.486;2023-03-14T01:28:40;98672.69;;;11.31;100.00
55610;BME280;41486;52.502;13.486;2023-03-14T01:31:09;98660.03;;;11.26;100.00
55610;BME280;41486;52.502;13.486;2023-03-14T01:33:39;98663.94;;;11.39;100.00
55610;BME280;41486;52.502;13.486;2023-03-14T01:36:09;98667.13;;;11.26;100.00
55610;BME280;41486;52.502;13.486;2023-03-14T01:38:39;98669.72;;;11.34;100.00
55610;BME280;41486;52.502;13.486;2023-03-14T01:41:14;98666.44;;;11.32;100.00
55610;BME280;41486;52.502;13.486;2023-03-14T01:43:44;98668.22;;;11.40;100.00
55610;BME280;41486;52.502;13.486;2023-03-14T01:46:25;98675.78;;;11.34;100.00
55610;BME280;41486;52.502;13.486;2023-03-14T01:48:57;98675.47;;;11.38;100.00
55610;BME280;41486;52.502;13.486;2023-03-14T01:51:30;98685.25;;;11.20;100.00
55610;BME280;41486;52.502;13.486;2023-03-14T01:54:09;98687.00;;;11.36;100.00
55610;BME280;41486;52.502;13.486;2023-03-14T01:56:41;98692.97;;;11.22;100.00
55610;BME280;41486;52.502;13.486;2023-03-14T01:59:10;98685.06;;;11.22;100.00
55610;BME280;41486;52.502;13.486;2023-03-14T02:01:41;98676.47;;;11.28;100.00
55610;BME280;41486;52.502;13.486;2023-03-14T02:04:10;98672.19;;;11.27;100.00
55610;BME280;41486;52.502;13.486;2023-03-14T02:06:48;98664.97;;;11.29;100.00
55610;BME280;41486;52.502;13.486;2023-03-14T02:09:20;98647.94;;;11.09;100.00
55610;BME280;41486;52.502;13.486;2023-03-14T02:11:50;98655.97;;;11.15;100.00
55610;BME280;41486;52.502;13.486;2023-03-14T02:14:39;98648.25;;;11.14;100.00
55610;BME280;41486;52.502;13.486;2023-03-14T02:17:31;98647.25;;;11.15;100.00
55610;BME280;41486;52.502;13.486;2023-03-14T02:20:25;98635.06;;;11.14;100.00
55610;BME280;41486;52.502;13.486;2023-03-14T02:22:57;98639.56;;;11.05;100.00
55610;BME280;41486;52.502;13.486;2023-03-14T02:25:37;98636.09;;;11.04;100.00
55610;BME280;41486;52.502;13.486;2023-03-14T02:28:08;98629.56;;;10.92;100.00
55610;BME280;41486;52.502;13.486;2023-03-14T02:30:38;98636.81;;;10.90;100.00
55610;BME280;41486;52.502;13.486;2023-03-14T02:33:08;98629.09;;;10.88;100.00
55610;BME280;41486;52.502;13.486;2023-03-14T02:35:38;98631.50;;;11.07;100.00
55610;BME280;41486;52.502;13.486;2023-03-14T02:38:13;98630.03;;;11.04;100.00
55610;BME280;41486;52.502;13.486;2023-03-14T02:40:44;98631.81;;;11.03;100.00
55610;BME280;41486;52.502;13.486;2023-03-14T02:43:14;98613.25;;;11.05;100.00
55610;BME280;41486;52.502;13.486;2023-03-14T02:45:49;98616.72;;;10.97;100.00
55610;BME280;41486;52.502;13.486;2023-03-14T02:48:22;98623.41;;;11.08;100.00
55610;BME280;41486;52.502;13.486;2023-03-14T02:50:54;98615.72;;;10.98;100.00
55610;BME280;41486;52.502;13.486;2023-03-14T02:53:25;98608.13;;;11.03;100.00
55610;BME280;41486;52.502;13.486;2023-03-14T02:55:55;98604.31;;;11.06;100.00
55610;BME280;41486;52.502;13.486;2023-03-14T02:58:26;98589.56;;;11.05;100.00
55610;BME280;41486;52.502;13.486;2023-03-14T03:01:01;98593.31;;;11.02;100.00
55610;BME280;41486;52.502;13.486;2023-03-14T03:03:29;98580.81;;;11.04;100.00
55610;BME280;41486;52.502;13.486;2023-03-14T03:05:57;98574.13;;;10.94;100.00
55610;BME280;41486;52.502;13.486;2023-03-14T03:08:25;98576.94;;;10.92;100.00
55610;BME280;41486;52.502;13.486;2023-03-14T03:10:57;98564.31;;;10.79;100.00
55610;BME280;41486;52.502;13.486;2023-03-14T03:13:28;98549.44;;;10.95;100.00
55610;BME280;41486;52.502;13.486;2023-03-14T03:15:58;98542.25;;;10.88;100.00
55610;BME280;41486;52.502;13.486;2023-03-14T03:18:26;98538.50;;;10.83;100.00
55610;BME280;41486;52.502;13.486;2023-03-14T03:20:54;98520.81;;;11.00;100.00
55610;BME280;41486;52.502;13.486;2023-03-14T03:23:22;98522.88;;;10.81;100.00
55610;BME280;41486;52.502;13.486;2023-03-14T03:25:50;98523.00;;;10.88;100.00
55610;BME280;41486;52.502;13.486;2023-03-14T03:28:19;98531.09;;;10.78;100.00
55610;BME280;41486;52.502;13.486;2023-03-14T03:30:50;98532.91;;;10.78;100.00
55610;BME280;41486;52.502;13.486;2023-03-14T03:33:18;98565.78;;;10.82;100.00
55610;BME280;41486;52.502;13.486;2023-03-14T03:35:47;98565.59;;;10.83;100.00
55610;BME280;41486;52.502;13.486;2023-03-14T03:38:20;98553.75;;;10.87;100.00
55610;BME280;41486;52.502;13.486;2023-03-14T03:40:51;98545.53;;;10.82;100.00
55610;BME280;41486;52.502;13.486;2023-03-14T03:43:23;98555.59;;;10.79;100.00
55610;BME280;41486;52.502;13.486;2023-03-14T03:45:52;98558.84;;;10.89;100.00
55610;BME280;41486;52.502;13.486;2023-03-14T03:48:22;98553.94;;;10.78;100.00
55610;BME280;41486;52.502;13.486;2023-03-14T03:50:50;98553.28;;;10.84;100.00
55610;BME280;41486;52.502;13.486;2023-03-14T03:53:21;98546.75;;;10.71;100.00
55610;BME280;41486;52.502;13.486;2023-03-14T03:56:03;98541.81;;;10.77;100.00
55610;BME280;41486;52.502;13.486;2023-03-14T03:58:32;98539.81;;;10.79;100.00
55610;BME280;41486;52.502;13.486;2023-03-14T04:01:04;98549.84;;;10.75;100.00
55610;BME280;41486;52.502;13.486;2023-03-14T04:03:33;98548.19;;;10.74;100.00
55610;BME280;41486;52.502;13.486;2023-03-14T04:06:02;98543.56;;;10.84;100.00
55610;BME280;41486;52.502;13.486;2023-03-14T04:08:32;98552.66;;;10.73;100.00
55610;BME280;41486;52.502;13.486;2023-03-14T04:11:01;98550.84;;;10.74;100.00
55610;BME280;41486;52.502;13.486;2023-03-14T04:13:54;98527.81;;;10.76;100.00
55610;BME280;41486;52.502;13.486;2023-03-14T04:16:24;98547.91;;;10.69;100.00
55610;BME280;41486;52.502;13.486;2023-03-14T04:19:00;98547.72;;;10.70;100.00
55610;BME280;41486;52.502;13.486;2023-03-14T04:21:30;98543.78;;;10.75;100.00
55610;BME280;41486;52.502;13.486;2023-03-14T04:23:58;98542.47;;;10.70;100.00
55610;BME280;41486;52.502;13.486;2023-03-14T04:26:30;98529.31;;;10.70;100.00
55610;BME280;41486;52.502;13.486;2023-03-14T04:28:58;98526.88;;;10.61;100.00
55610;BME280;41486;52.502;13.486;2023-03-14T04:31:27;98537.72;;;10.66;100.00
55610;BME280;41486;52.502;13.486;2023-03-14T04:33:55;98531.47;;;10.67;100.00
55610;BME280;41486;52.502;13.486;2023-03-14T04:36:31;98528.53;;;10.62;100.00
55610;BME280;41486;52.502;13.486;2023-03-14T04:39:03;98531.66;;;10.57;100.00
55610;BME280;41486;52.502;13.486;2023-03-14T04:41:34;98506.81;;;10.68;100.00
55610;BME280;41486;52.502;13.486;2023-03-14T04:44:02;98511.47;;;10.57;100.00
55610;BME280;41486;52.502;13.486;2023-03-14T04:46:31;98503.06;;;10.54;100.00
55610;BME280;41486;52.502;13.486;2023-03-14T04:49:02;98492.03;;;10.58;100.00
55610;BME280;41486;52.502;13.486;2023-03-14T04:51:30;98504.03;;;10.69;100.00
55610;BME280;41486;52.502;13.486;2023-03-14T04:53:58;98493.06;;;10.57;100.00
55610;BME280;41486;52.502;13.486;2023-03-14T04:56:26;98482.34;;;10.59;100.00
55610;BME280;41486;52.502;13.486;2023-03-14T04:58:54;98482.88;;;10.54;100.00
55610;BME280;41486;52.502;13.486;2023-03-14T05:01:22;98477.09;;;10.59;100.00
55610;BME280;41486;52.502;13.486;2023-03-14T05:04:21;98473.81;;;10.57;100.00
55610;BME280;41486;52.502;13.486;2023-03-14T05:07:00;98483.03;;;10.53;100.00
55610;BME280;41486;52.502;13.486;2023-03-14T05:09:46;98494.38;;;10.53;100.00
55610;BME280;41486;52.502;13.486;2023-03-14T05:12:38;98497.78;;;10.62;100.00
55610;BME280;41486;52.502;13.486;2023-03-14T05:15:20;98490.75;;;10.54;100.00
55610;BME280;41486;52.502;13.486;2023-03-14T05:18:14;98487.25;;;10.62;100.00
55610;BME280;41486;52.502;13.486;2023-03-14T05:21:04;98473.47;;;10.60;100.00
55610;BME280;41486;52.502;13.486;2023-03-14T05:23:51;98465.25;;;10.55;100.00
55610;BME280;41486;52.502;13.486;2023-03-14T05:26:42;98455.25;;;10.50;100.00
55610;BME280;41486;52.502;13.486;2023-03-14T05:29:33;98460.94;;;10.62;100.00
55610;BME280;41486;52.502;13.486;2023-03-14T05:32:19;98460.00;;;10.55;100.00
55610;BME280;41486;52.502;13.486;2023-03-14T05:35:01;98454.13;;;10.53;100.00
55610;BME280;41486;52.502;13.486;2023-03-14T05:37:51;98459.47;;;10.68;100.00
55610;BME280;41486;52.502;13.486;2023-03-14T05:40:19;98467.22;;;10.61;100.00
55610;BME280;41486;52.502;13.486;2023-03-14T05:43:03;98459.00;;;10.56;100.00
55610;BME280;41486;52.502;13.486;2023-03-14T05:45:34;98464.72;;;10.68;100.00
55610;BME280;41486;52.502;13.486;2023-03-14T05:48:22;98472.31;;;10.63;100.00
55610;BME280;41486;52.502;13.486;2023-03-14T05:51:09;98462.25;;;10.66;100.00
55610;BME280;41486;52.502;13.486;2023-03-14T05:53:53;98469.81;;;10.69;100.00
55610;BME280;41486;52.502;13.486;2023-03-14T05:56:46;98474.22;;;10.77;100.00
55610;BME280;41486;52.502;13.486;2023-03-14T05:59:25;98471.41;;;10.79;100.00
55610;BME280;41486;52.502;13.486;2023-03-14T06:02:13;98464.34;;;10.79;100.00
55610;BME280;41486;52.502;13.486;2023-03-14T06:04:52;98467.13;;;10.78;100.00
55610;BME280;41486;52.502;13.486;2023-03-14T06:07:20;98464.16;;;10.81;100.00
55610;BME280;41486;52.502;13.486;2023-03-14T06:09:49;98469.25;;;10.82;100.00
55610;BME280;41486;52.502;13.486;2023-03-14T06:12:18;98474.03;;;10.79;100.00
55610;BME280;41486;52.502;13.486;2023-03-14T06:14:47;98473.41;;;10.77;100.00
55610;BME280;41486;52.502;13.486;2023-03-14T06:17:15;98464.81;;;10.83;100.00
55610;BME280;41486;52.502;13.486;2023-03-14T06:19:50;98474.47;;;10.91;100.00
55610;BME280;41486;52.502;13.486;2023-03-14T06:22:18;98461.34;;;10.82;100.00
55610;BME280;41486;52.502;13.486;2023-03-14T06:24:48;98468.22;;;10.92;100.00
55610;BME280;41486;52.502;13.486;2023-03-14T06:27:20;98468.69;;;10.95;100.00
55610;BME280;41486;52.502;13.486;2023-03-14T06:29:53;98479.34;;;11.02;100.00
55610;BME280;41486;52.502;13.486;2023-03-14T06:32:23;98471.78;;;10.99;100.00
55610;BME280;41486;52.502;13.486;2023-03-14T06:34:56;98473.63;;;10.98;100.00
55610;BME280;41486;52.502;13.486;2023-03-14T06:37:32;98481.47;;;11.07;99.24
55610;BME280;41486;52.502;13.486;2023-03-14T06:40:03;98473.84;;;11.12;98.96
55610;BME280;41486;52.502;13.486;2023-03-14T06:42:54;98467.94;;;11.10;98.53
55610;BME280;41486;52.502;13.486;2023-03-14T06:45:23;98478.97;;;11.13;98.71
55610;BME280;41486;52.502;13.486;2023-03-14T06:47:53;98487.91;;;11.27;97.74
55610;BME280;41486;52.502;13.486;2023-03-14T06:50:26;98489.97;;;11.17;97.76
55610;BME280;41486;52.502;13.486;2023-03-14T06:52:56;98496.22;;;11.16;97.63
55610;BME280;41486;52.502;13.486;2023-03-14T06:55:29;98500.78;;;11.22;97.34
55610;BME280;41486;52.502;13.486;2023-03-14T06:57:57;98494.16;;;11.26;96.92
55610;BME280;41486;52.502;13.486;2023-03-14T07:00:25;98506.00;;;11.30;96.41
55610;BME280;41486;52.502;13.486;2023-03-14T07:02:55;98517.66;;;11.36;96.10
55610;BME280;41486;52.502;13.486;2023-03-14T07:05:28;98516.00;;;11.35;96.06
55610;BME280;41486;52.502;13.486;2023-03-14T07:07:57;98511.38;;;11.37;95.81
55610;BME280;41486;52.502;13.486;2023-03-14T07:10:25;98516.59;;;11.45;95.17
55610;BME280;41486;52.502;13.486;2023-03-14T07:12:55;98541.13;;;11.46;95.03
55610;BME280;41486;52.502;13.486;2023-03-14T07:15:26;98524.66;;;11.44;95.56
55610;BME280;41486;52.502;13.486;2023-03-14T07:17:59;98523.53;;;11.38;95.27
55610;BME280;41486;52.502;13.486;2023-03-14T07:20:27;98525.84;;;11.41;95.11
55610;BME280;41486;52.502;13.486;2023-03-14T07:22:56;98526.41;;;11.28;96.26
55610;BME280;41486;52.502;13.486;2023-03-14T07:25:52;98531.47;;;11.30;96.52
55610;BME280;41486;52.502;13.486;2023-03-14T07:28:35;98540.22;;;11.30;96.51
55610;BME280;41486;52.502;13.486;2023-03-14T07:31:08;98543.47;;;11.41;95.59
55610;BME280;41486;52.502;13.486;2023-03-14T07:33:38;98537.19;;;11.42;95.27
55610;BME280;41486;52.502;13.486;2023-03-14T07:36:07;98530.16;;;11.34;96.13
55610;BME280;41486;52.502;13.486;2023-03-14T07:38:40;98541.44;;;11.43;95.49
55610;BME280;41486;52.502;13.486;2023-03-14T07:41:23;98547.56;;;11.43;95.55
55610;BME280;41486;52.502;13.486;2023-03-14T07:44:15;98535.09;;;11.37;95.77
55610;BME280;41486;52.502;13.486;2023-03-14T07:46:43;98533.72;;;11.41;95.85
55610;BME280;41486;52.502;13.486;2023-03-14T07:49:11;98539.72;;;11.35;96.22
55610;BME280;41486;52.502;13.486;2023-03-14T07:51:39;98543.94;;;11.44;95.49
55610;BME280;41486;52.502;13.486;2023-03-14T07:54:07;98532.13;;;11.32;96.03
55610;BME280;41486;52.502;13.486;2023-03-14T07:56:35;98543.78;;;11.38;95.75
55610;BME280;41486;52.502;13.486;2023-03-14T07:59:03;98534.06;;;11.38;95.38
55610;BME280;41486;52.502;13.486;2023-03-14T08:01:42;98535.91;;;11.38;95.82
55610;BME280;41486;52.502;13.486;2023-03-14T08:04:10;98525.13;;;11.47;94.93
55610;BME280;41486;52.502;13.486;2023-03-14T08:06:40;98540.78;;;11.49;94.91
55610;BME280;41486;52.502;13.486;2023-03-14T08:09:08;98536.31;;;11.49;94.35
55610;BME280;41486;52.502;13.486;2023-03-14T08:11:36;98525.91;;;11.56;94.46
55610;BME280;41486;52.502;13.486;2023-03-14T08:14:04;98518.28;;;11.61;94.32
55610;BME280;41486;52.502;13.486;2023-03-14T08:16:32;98518.56;;;11.66;93.46
55610;BME280;41486;52.502;13.486;2023-03-14T08:19:05;98509.13;;;11.72;93.37
55610;BME280;41486;52.502;13.486;2023-03-14T08:21:36;98520.91;;;11.84;92.22
55610;BME280;41486;52.502;13.486;2023-03-14T08:24:06;98522.06;;;11.82;92.17
55610;BME280;41486;52.502;13.486;2023-03-14T08:26:45;98519.78;;;11.79;92.57
55610;BME280;41486;52.502;13.486;2023-03-14T08:29:13;98519.78;;;11.79;92.60
55610;BME280;41486;52.502;13.486;2023-03-14T08:31:41;98507.56;;;11.86;93.07
55610;BME280;41486;52.502;13.486;2023-03-14T08:34:12;98522.81;;;11.91;91.88
55610;BME280;41486;52.502;13.486;2023-03-14T08:36:40;98515.09;;;11.89;91.37
55610;BME280;41486;52.502;13.486;2023-03-14T08:39:08;98523.91;;;12.05;90.65
55610;BME280;41486;52.502;13.486;2023-03-14T08:41:37;98532.16;;;12.02;91.21
55610;BME280;41486;52.502;13.486;2023-03-14T08:44:08;98529.56;;;11.93;91.36
55610;BME280;41486;52.502;13.486;2023-03-14T08:46:37;98535.34;;;11.89;91.14
55610;BME280;41486;52.502;13.486;2023-03-14T08:49:07;98532.69;;;11.97;90.73
55610;BME280;41486;52.502;13.486;2023-03-14T08:51:37;98542.22;;;11.98;90.95
55610;BME280;41486;52.502;13.486;2023-03-14T08:54:05;98536.44;;;12.03;90.20
55610;BME280;41486;52.502;13.486;2023-03-14T08:56:33;98544.25;;;12.11;90.20
55610;BME280;41486;52.502;13.486;2023-03-14T08:59:01;98542.38;;;11.96;89.98
55610;BME280;41486;52.502;13.486;2023-03-14T09:01:29;98548.97;;;12.01;90.27
55610;BME280;41486;52.502;13.486;2023-03-14T09:03:57;98563.59;;;12.03;89.80
55610;BME280;41486;52.502;13.486;2023-03-14T09:06:34;98547.09;;;12.09;89.54
55610;BME280;41486;52.502;13.486;2023-03-14T09:09:06;98542.16;;;12.06;89.33
55610;BME280;41486;52.502;13.486;2023-03-14T09:11:34;98537.47;;;12.17;89.58
55610;BME280;41486;52.502;13.486;2023-03-14T09:14:04;98535.63;;;12.17;89.46
55610;BME280;41486;52.502;13.486;2023-03-14T09:16:32;98531.84;;;12.35;87.97
55610;BME280;41486;52.502;13.486;2023-03-14T09:19:01;98531.84;;;12.35;87.30
55610;BME280;41486;52.502;13.486;2023-03-14T09:21:29;98524.56;;;12.52;87.37
55610;BME280;41486;52.502;13.486;2023-03-14T09:24:00;98513.19;;;12.51;86.99
55610;BME280;41486;52.502;13.486;2023-03-14T09:26:29;98510.00;;;12.56;86.28
55610;BME280;41486;52.502;13.486;2023-03-14T09:28:58;98507.28;;;12.49;86.18
55610;BME280;41486;52.502;13.486;2023-03-14T09:31:26;98504.28;;;12.52;85.81
55610;BME280;41486;52.502;13.486;2023-03-14T09:33:55;98503.56;;;12.58;84.71
55610;BME280;41486;52.502;13.486;2023-03-14T09:36:23;98510.53;;;12.66;85.42
55610;BME280;41486;52.502;13.486;2023-03-14T09:38:51;98510.72;;;12.80;84.49
55610;BME280;41486;52.502;13.486;2023-03-14T09:41:25;98506.44;;;12.78;82.87
55610;BME280;41486;52.502;13.486;2023-03-14T09:44:00;98503.94;;;12.92;82.39
55610;BME280;41486;52.502;13.486;2023-03-14T09:46:38;98508.22;;;13.08;79.06
55610;BME280;41486;52.502;13.486;2023-03-14T09:49:12;98507.16;;;13.24;79.18
55610;BME280;41486;52.502;13.486;2023-03-14T09:51:44;98504.47;;;13.17;80.57
55610;BME280;41486;52.502;13.486;2023-03-14T09:54:26;98513.84;;;13.05;79.32
55610;BME280;41486;52.502;13.486;2023-03-14T09:56:54;98512.06;;;12.90;79.58
55610;BME280;41486;52.502;13.486;2023-03-14T09:59:24;98507.69;;;12.98;79.93
55610;BME280;41486;52.502;13.486;2023-03-14T10:01:55;98513.97;;;12.97;80.04
55610;BME280;41486;52.502;13.486;2023-03-14T10:04:25;98511.06;;;12.91;78.74
55610;BME280;41486;52.502;13.486;2023-03-14T10:06:54;98517.03;;;13.00;78.12
55610;BME280;41486;52.502;13.486;2023-03-14T10:09:23;98517.78;;;12.94;78.36
55610;BME280;41486;52.502;13.486;2023-03-14T10:11:57;98527.25;;;12.88;78.11
55610;BME280;41486;52.502;13.486;2023-03-14T10:14:37;98527.91;;;12.90;77.56
55610;BME280;41486;52.502;13.486;2023-03-14T10:17:07;98522.19;;;12.87;77.76
55610;BME280;41486;52.502;13.486;2023-03-14T10:19:51;98525.81;;;13.01;77.83
55610;BME280;41486;52.502;13.486;2023-03-14T10:22:21;98523.41;;;13.06;77.28
55610;BME280;41486;52.502;13.486;2023-03-14T10:24:52;98520.41;;;13.09;77.38
55610;BME280;41486;52.502;13.486;2023-03-14T10:27:22;98514.09;;;13.10;77.23
55610;BME280;41486;52.502;13.486;2023-03-14T10:29:54;98516.13;;;13.08;76.74
55610;BME280;41486;52.502;13.486;2023-03-14T10:32:32;98521.13;;;13.03;76.88
55610;BME280;41486;52.502;13.486;2023-03-14T10:35:07;98528.50;;;13.07;75.58
55610;BME280;41486;52.502;13.486;2023-03-14T10:37:48;98521.56;;;13.06;75.68
55610;BME280;41486;52.502;13.486;2023-03-14T10:40:19;98520.59;;;13.07;75.02
55610;BME280;41486;52.502;13.486;2023-03-14T10:42:48;98533.88;;;12.99;74.82
55610;BME280;41486;52.502;13.486;2023-03-14T10:45:31;98530.53;;;13.05;74.62
55610;BME280;41486;52.502;13.486;2023-03-14T10:48:13;98544.44;;;12.99;73.98
55610;BME280;41486;52.502;13.486;2023-03-14T10:50:50;98527.56;;;12.93;75.33
55610;BME280;41486;52.502;13.486;2023-03-14T10:53:21;98523.31;;;12.99;74.93
55610;BME280;41486;52.502;13.486;2023-03-14T10:55:52;98519.44;;;12.95;74.93
55610;BME280;41486;52.502;13.486;2023-03-14T10:58:22;98538.91;;;12.94;75.16
55610;BME280;41486;52.502;13.486;2023-03-14T11:01:02;98524.31;;;12.98;74.28
55610;BME280;41486;52.502;13.486;2023-03-14T11:03:35;98525.53;;;12.96;74.47
55610;BME280;41486;52.502;13.486;2023-03-14T11:06:07;98531.63;;;12.96;73.94
55610;BME280;41486;52.502;13.486;2023-03-14T11:08:45;98526.25;;;13.04;73.92
55610;BME280;41486;52.502;13.486;2023-03-14T11:11:19;98520.41;;;13.09;74.12
55610;BME280;41486;52.502;13.486;2023-03-14T11:14:01;98511.47;;;13.10;74.29
55610;BME280;41486;52.502;13.486;2023-03-14T11:16:42;98522.09;;;13.17;74.11
55610;BME280;41486;52.502;13.486;2023-03-14T11:19:32;98518.28;;;13.19;74.52
55610;BME280;41486;52.502;13.486;2023-03-14T11:22:11;98525.63;;;13.24;74.24
55610;BME280;41486;52.502;13.486;2023-03-14T11:24:50;98524.13;;;13.15;74.79
55610;BME280;41486;52.502;13.486;2023-03-14T11:27:22;98523.22;;;13.07;75.94
55610;BME280;41486;52.502;13.486;2023-03-14T11:29:54;98526.16;;;13.13;75.99
55610;BME280;41486;52.502;13.486;2023-03-14T11:32:38;98527.06;;;13.05;76.87
55610;BME280;41486;52.502;13.486;2023-03-14T11:35:17;98524.66;;;13.10;76.37
55610;BME280;41486;52.502;13.486;2023-03-14T11:37:46;98531.69;;;13.03;77.32
55610;BME280;41486;52.502;13.486;2023-03-14T11:40:23;98513.22;;;13.03;77.21
55610;BME280;41486;52.502;13.486;2023-03-14T11:43:00;98515.50;;;13.06;77.09
55610;BME280;41486;52.502;13.486;2023-03-14T11:45:32;98512.66;;;13.07;77.60
55610;BME280;41486;52.502;13.486;2023-03-14T11:48:25;98507.56;;;13.06;78.05
55610;BME280;41486;52.502;13.486;2023-03-14T11:50:57;98528.00;;;12.97;79.45
55610;BME280;41486;52.502;13.486;2023-03-14T11:53:39;98528.66;;;12.84;83.16
55610;BME280;41486;52.502;13.486;2023-03-14T11:56:13;98513.53;;;12.78;85.77
55610;BME280;41486;52.502;13.486;2023-03-14T11:58:54;98511.09;;;12.76;85.18
55610;BME280;41486;52.502;13.486;2023-03-14T12:01:28;98516.91;;;12.72;84.39
55610;BME280;41486;52.502;13.486;2023-03-14T12:04:05;98524.03;;;12.71;85.21
55610;BME280;41486;52.502;13.486;2023-03-14T12:06:41;98514.25;;;12.72;85.93
55610;BME280;41486;52.502;13.486;2023-03-14T12:09:15;98512.81;;;12.69;87.19
55610;BME280;41486;52.502;13.486;2023-03-14T12:11:47;98519.19;;;12.60;88.37
55610;BME280;41486;52.502;13.486;2023-03-14T12:14:19;98519.47;;;12.65;88.45
55610;BME280;41486;52.502;13.486;2023-03-14T12:16:53;98505.28;;;12.51;90.19
55610;BME280;41486;52.502;13.486;2023-03-14T12:19:36;98498.91;;;12.60;89.49
55610;BME280;41486;52.502;13.486;2023-03-14T12:22:21;98492.34;;;12.71;89.59
55610;BME280;41486;52.502;13.486;2023-03-14T12:24:54;98497.34;;;12.81;89.79
55610;BME280;41486;52.502;13.486;2023-03-14T12:27:47;98500.66;;;12.90;88.57
55610;BME280;41486;52.502;13.486;2023-03-14T12:30:28;98489.94;;;12.91;88.17
55610;BME280;41486;52.502;13.486;2023-03-14T12:33:29;98490.75;;;12.92;88.03
55610;BME280;41486;52.502;13.486;2023-03-14T12:36:11;98487.53;;;12.75;89.02
55610;BME280;41486;52.502;13.486;2023-03-14T12:38:57;98473.50;;;12.74;89.72
55610;BME280;41486;52.502;13.486;2023-03-14T12:41:34;98482.25;;;12.75;89.19
55610;BME280;41486;52.502;13.486;2023-03-14T12:50:40;98477.00;;;12.45;97.29
55610;BME280;41486;52.502;13.486;2023-03-14T12:53:50;98475.16;;;12.60;97.09
55610;BME280;41486;52.502;13.486;2023-03-14T12:56:26;98480.06;;;12.63;97.28
55610;BME280;41486;52.502;13.486;2023-03-14T12:59:38;98479.72;;;12.67;95.05
55610;BME280;41486;52.502;13.486;2023-03-14T13:02:20;98467.31;;;12.67;95.99
55610;BME280;41486;52.502;13.486;2023-03-14T13:04:51;98469.03;;;12.75;95.09
55610;BME280;41486;52.502;13.486;2023-03-14T13:07:32;98462.78;;;12.61;96.50
55610;BME280;41486;52.502;13.486;2023-03-14T13:10:20;98474.72;;;12.57;98.95
55610;BME280;41486;52.502;13.486;2023-03-14T13:12:51;98480.16;;;12.55;100.00
55610;BME280;41486;52.502;13.486;2023-03-14T13:15:26;98477.16;;;12.43;100.00
55610;BME280;41486;52.502;13.486;2023-03-14T13:17:59;98484.72;;;12.17;100.00
55610;BME280;41486;52.502;13.486;2023-03-14T13:20:31;98483.22;;;11.38;100.00
55610;BME280;41486;52.502;13.486;2023-03-14T13:23:00;98481.69;;;11.20;100.00
55610;BME280;41486;52.502;13.486;2023-03-14T13:25:36;98482.50;;;10.97;100.00